Time;durP1;ratioP1;P1;durP2;ratioP2;P2;SDS_P1;SDS_P2;PMS_P1;PMS_P2;Temp;Humidity;BMP_temperature;BMP_pressure;BME280_temperature;BME280_humidity;BME280_pressure;Samples;Min_cycle;Max_cycle;Signal;HPM_P1;HPM_P2
2023/04/26 00:00:41;;;;;;;2.78;1.55;;;;;;;;;;5120563;27;20540;-84
2023/04/26 00:03:07;;;;;;;2.80;1.70;;;;;;;;;;5119218;27;20084;-84
2023/04/26 00:05:33;;;;;;;2.85;1.70;;;;;;;;;;5135943;27;20469;-84
2023/04/26 00:07:59;;;;;;;3.50;1.95;;;;;;;;;;5134495;27;20107;-83
2023/04/26 00:10:24;;;;;;;3.42;1.92;;;;;;;;;;5116794;27;20481;-84
2023/04/26 00:12:50;;;;;;;4.63;2.25;;;;;;;;;;5134812;27;20042;-84
2023/04/26 00:15:16;;;;;;;3.53;1.88;;;;;;;;;;5134882;27;20110;-83
2023/04/26 00:17:41;;;;;;;4.28;2.20;;;;;;;;;;5135534;27;20076;-83
2023/04/26 00:20:09;;;;;;;3.30;2.03;;;;;;;;;;5134971;27;20027;-84
2023/04/26 00:22:35;;;;;;;3.70;2.13;;;;;;;;;;5134848;27;20023;-84
2023/04/26 00:25:00;;;;;;;3.47;2.28;;;;;;;;;;5116431;27;20122;-83
2023/04/26 00:27:26;;;;;;;5.28;2.40;;;;;;;;;;5134870;27;20038;-84
2023/04/26 00:29:51;;;;;;;4.43;2.35;;;;;;;;;;5134656;27;20533;-84
2023/04/26 00:32:17;;;;;;;3.78;2.28;;;;;;;;;;5133471;27;20114;-84
2023/04/26 00:34:42;;;;;;;3.90;2.35;;;;;;;;;;5134692;27;20084;-84
2023/04/26 00:37:07;;;;;;;5.60;2.40;;;;;;;;;;5133979;27;20125;-84
2023/04/26 00:39:33;;;;;;;2.92;1.95;;;;;;;;;;5134726;27;20058;-84
2023/04/26 00:41:58;;;;;;;3.05;1.85;;;;;;;;;;5134536;27;20035;-84
2023/04/26 00:44:24;;;;;;;4.80;2.28;;;;;;;;;;5116115;28;20409;-84
2023/04/26 00:46:51;;;;;;;3.42;2.20;;;;;;;;;;5116256;27;20097;-84
2023/04/26 00:49:18;;;;;;;3.38;2.20;;;;;;;;;;5134740;27;20048;-85
2023/04/26 00:51:44;;;;;;;2.60;1.83;;;;;;;;;;5133352;28;20024;-84
2023/04/26 00:54:10;;;;;;;4.60;2.47;;;;;;;;;;5133845;27;20165;-84
2023/04/26 00:56:37;;;;;;;2.88;2.30;;;;;;;;;;5137155;28;20031;-84
2023/04/26 00:59:03;;;;;;;5.00;2.35;;;;;;;;;;5146593;28;20089;-83
2023/04/26 01:01:28;;;;;;;3.25;2.05;;;;;;;;;;5119666;28;20031;-84
2023/04/26 01:03:54;;;;;;;3.78;1.95;;;;;;;;;;5136176;28;20034;-84
2023/04/26 01:06:19;;;;;;;2.58;1.92;;;;;;;;;;5128523;28;20035;-83
2023/04/26 01:08:45;;;;;;;4.07;2.17;;;;;;;;;;5135035;28;20080;-83
2023/04/26 01:11:11;;;;;;;3.85;2.22;;;;;;;;;;5116253;28;20078;-84
2023/04/26 01:13:37;;;;;;;2.33;1.90;;;;;;;;;;5135207;28;20051;-83
2023/04/26 01:16:03;;;;;;;3.20;2.20;;;;;;;;;;5138610;28;20097;-83
2023/04/26 01:18:28;;;;;;;2.97;1.90;;;;;;;;;;5135062;28;20027;-83
2023/04/26 01:20:55;;;;;;;3.17;2.10;;;;;;;;;;5133407;28;20054;-83
2023/04/26 01:23:21;;;;;;;4.13;2.03;;;;;;;;;;5133170;28;20492;-83
2023/04/26 01:25:47;;;;;;;4.78;2.20;;;;;;;;;;5116096;28;20035;-84
2023/04/26 01:28:12;;;;;;;2.47;2.00;;;;;;;;;;5134292;28;20104;-84
2023/04/26 01:30:37;;;;;;;5.28;2.10;;;;;;;;;;5133447;28;20122;-84
2023/04/26 01:33:03;;;;;;;4.65;2.05;;;;;;;;;;5115858;28;20031;-84
2023/04/26 01:35:28;;;;;;;3.95;2.35;;;;;;;;;;5133989;28;20370;-84
2023/04/26 01:37:54;;;;;;;3.15;2.10;;;;;;;;;;5132781;28;20050;-83
2023/04/26 01:40:20;;;;;;;2.50;1.98;;;;;;;;;;5133724;28;20473;-84
2023/04/26 01:42:45;;;;;;;2.88;2.10;;;;;;;;;;5132269;28;20076;-84
2023/04/26 01:45:11;;;;;;;3.67;1.80;;;;;;;;;;5132508;28;20058;-84
2023/04/26 01:47:36;;;;;;;4.40;1.98;;;;;;;;;;5132363;28;20070;-84
2023/04/26 01:50:02;;;;;;;5.05;2.25;;;;;;;;;;5133840;28;20415;-84
2023/04/26 01:52:27;;;;;;;3.25;2.25;;;;;;;;;;5133987;28;20160;-84
2023/04/26 01:54:53;;;;;;;3.83;2.03;;;;;;;;;;5115373;28;20035;-84
2023/04/26 01:57:18;;;;;;;4.25;1.80;;;;;;;;;;5115172;28;20031;-83
2023/04/26 01:59:43;;;;;;;2.58;1.83;;;;;;;;;;5115148;28;20027;-83
2023/04/26 02:02:09;;;;;;;1.90;1.67;;;;;;;;;;5132302;28;20073;-83
2023/04/26 02:04:34;;;;;;;4.25;1.50;;;;;;;;;;5134017;28;20027;-84
2023/04/26 02:07:00;;;;;;;2.30;1.75;;;;;;;;;;5134514;27;20031;-83
2023/04/26 02:09:25;;;;;;;2.25;1.58;;;;;;;;;;5136702;27;20035;-85
2023/04/26 02:11:51;;;;;;;2.45;1.88;;;;;;;;;;5137968;27;20492;-85
2023/04/26 02:14:16;;;;;;;2.65;1.63;;;;;;;;;;5137354;27;20054;-85
2023/04/26 02:16:42;;;;;;;5.43;2.20;;;;;;;;;;5138181;27;20027;-85
2023/04/26 02:19:09;;;;;;;3.17;2.25;;;;;;;;;;5137378;27;20028;-85
2023/04/26 02:21:58;;;;;;;3.22;2.05;;;;;;;;;;5137136;27;20110;-85
2023/04/26 02:24:24;;;;;;;2.92;1.90;;;;;;;;;;5136033;27;20020;-85
2023/04/26 02:26:53;;;;;;;3.40;1.80;;;;;;;;;;5135766;27;20083;-85
2023/04/26 02:29:19;;;;;;;2.33;1.60;;;;;;;;;;5136453;27;20084;-84
2023/04/26 02:31:44;;;;;;;3.47;1.92;;;;;;;;;;5135729;27;20427;-85
2023/04/26 02:34:11;;;;;;;1.95;1.58;;;;;;;;;;5135649;27;20084;-86
2023/04/26 02:36:36;;;;;;;4.18;1.90;;;;;;;;;;5118543;27;20027;-84
2023/04/26 02:39:02;;;;;;;2.92;1.67;;;;;;;;;;5137093;27;20072;-85
2023/04/26 02:41:27;;;;;;;5.05;1.75;;;;;;;;;;5135479;27;20035;-87
2023/04/26 02:43:53;;;;;;;2.03;1.70;;;;;;;;;;5118279;27;20085;-86
2023/04/26 02:46:18;;;;;;;2.88;1.50;;;;;;;;;;5118341;27;20028;-86
2023/04/26 02:48:44;;;;;;;1.88;1.42;;;;;;;;;;5135296;27;20023;-86
2023/04/26 02:51:10;;;;;;;2.00;1.70;;;;;;;;;;5118427;27;20504;-86
2023/04/26 02:53:35;;;;;;;3.00;1.98;;;;;;;;;;5135482;27;20031;-86
2023/04/26 02:56:00;;;;;;;2.70;1.77;;;;;;;;;;5136778;27;20030;-86
2023/04/26 02:58:26;;;;;;;3.38;1.60;;;;;;;;;;5136721;27;20031;-85
2023/04/26 03:00:53;;;;;;;2.28;1.40;;;;;;;;;;5136459;27;20084;-85
2023/04/26 03:03:19;;;;;;;6.82;1.50;;;;;;;;;;5118181;27;20398;-86
2023/04/26 03:05:45;;;;;;;3.30;1.40;;;;;;;;;;5135236;27;20027;-85
2023/04/26 03:08:10;;;;;;;1.42;1.33;;;;;;;;;;5135363;27;20072;-83
2023/04/26 03:10:36;;;;;;;2.45;1.70;;;;;;;;;;5134978;27;20435;-85
2023/04/26 03:13:02;;;;;;;1.60;1.40;;;;;;;;;;5135053;27;20106;-84
2023/04/26 03:15:28;;;;;;;1.80;1.52;;;;;;;;;;5136585;27;20362;-84
2023/04/26 03:17:53;;;;;;;5.07;1.73;;;;;;;;;;5135901;27;20031;-86
2023/04/26 03:20:19;;;;;;;2.60;1.70;;;;;;;;;;5135982;27;20381;-86
2023/04/26 03:22:45;;;;;;;2.97;1.50;;;;;;;;;;5135972;27;20102;-85
2023/04/26 03:25:11;;;;;;;2.85;1.40;;;;;;;;;;5135825;27;20061;-85
2023/04/26 03:27:37;;;;;;;1.50;1.40;;;;;;;;;;5136107;27;20058;-85
2023/04/26 03:30:03;;;;;;;2.00;1.63;;;;;;;;;;5136194;27;20484;-86
2023/04/26 03:32:28;;;;;;;2.28;1.52;;;;;;;;;;5135706;27;20030;-85
2023/04/26 03:34:54;;;;;;;1.80;1.45;;;;;;;;;;5117484;27;20059;-86
2023/04/26 03:37:19;;;;;;;2.15;1.40;;;;;;;;;;5134271;27;20434;-86
2023/04/26 03:39:45;;;;;;;2.08;1.33;;;;;;;;;;5134590;27;20034;-86
2023/04/26 03:42:10;;;;;;;1.65;1.55;;;;;;;;;;5134311;27;20392;-85
2023/04/26 03:44:36;;;;;;;2.72;1.63;;;;;;;;;;5134425;27;20079;-86
2023/04/26 03:47:02;;;;;;;4.93;1.75;;;;;;;;;;5135618;27;20023;-83
2023/04/26 03:49:28;;;;;;;2.65;1.80;;;;;;;;;;5134146;27;20027;-83
2023/04/26 03:51:53;;;;;;;1.52;1.33;;;;;;;;;;5116916;27;20031;-82
2023/04/26 03:54:18;;;;;;;2.17;1.50;;;;;;;;;;5134342;27;20023;-83
2023/04/26 03:56:44;;;;;;;4.13;1.38;;;;;;;;;;5117138;27;20077;-85
2023/04/26 03:59:10;;;;;;;1.30;1.20;;;;;;;;;;5116757;27;20035;-85
2023/04/26 04:01:35;;;;;;;3.13;1.60;;;;;;;;;;5116951;27;20035;-85
2023/04/26 04:04:01;;;;;;;2.13;1.20;;;;;;;;;;5133400;27;20028;-85
2023/04/26 04:06:27;;;;;;;2.47;1.30;;;;;;;;;;5133890;27;20076;-87
2023/04/26 04:08:52;;;;;;;1.75;1.40;;;;;;;;;;5133783;27;20031;-86
2023/04/26 04:11:17;;;;;;;4.28;1.58;;;;;;;;;;5116303;27;20039;-86
2023/04/26 04:13:43;;;;;;;2.88;1.80;;;;;;;;;;5133555;27;20027;-86
2023/04/26 04:16:09;;;;;;;3.65;1.30;;;;;;;;;;5134662;27;20023;-85
2023/04/26 04:18:35;;;;;;;3.53;1.48;;;;;;;;;;5123362;27;20027;-86
2023/04/26 04:21:00;;;;;;;2.78;1.30;;;;;;;;;;5136621;27;20035;-86
2023/04/26 04:23:26;;;;;;;2.83;1.20;;;;;;;;;;5133507;27;20089;-84
2023/04/26 04:25:52;;;;;;;2.97;1.42;;;;;;;;;;5134968;27;20389;-86
2023/04/26 04:28:17;;;;;;;3.35;1.48;;;;;;;;;;5133045;27;20111;-84
2023/04/26 04:30:43;;;;;;;3.30;1.30;;;;;;;;;;5115810;27;20027;-83
2023/04/26 04:33:09;;;;;;;4.30;1.30;;;;;;;;;;5133528;27;20080;-84
2023/04/26 04:35:34;;;;;;;2.55;1.60;;;;;;;;;;5134758;27;20034;-82
2023/04/26 04:38:01;;;;;;;2.55;1.58;;;;;;;;;;5132768;27;20027;-88
2023/04/26 04:40:27;;;;;;;5.53;1.75;;;;;;;;;;5133844;27;20031;-83
2023/04/26 04:42:53;;;;;;;4.57;1.80;;;;;;;;;;5132327;27;20027;-86
2023/04/26 04:45:19;;;;;;;5.38;2.10;;;;;;;;;;5133667;27;20047;-85
2023/04/26 04:47:44;;;;;;;3.67;1.60;;;;;;;;;;5132834;27;20474;-84
2023/04/26 04:50:10;;;;;;;3.08;1.60;;;;;;;;;;5132597;27;20088;-85
2023/04/26 04:52:35;;;;;;;2.70;1.77;;;;;;;;;;5132733;28;20478;-84
2023/04/26 04:55:02;;;;;;;2.55;1.83;;;;;;;;;;5115149;28;20034;-85
2023/04/26 04:57:28;;;;;;;4.35;1.60;;;;;;;;;;5133948;28;20027;-88
2023/04/26 04:59:53;;;;;;;4.13;1.85;;;;;;;;;;5133575;28;20080;-89
2023/04/26 05:02:19;;;;;;;2.75;1.58;;;;;;;;;;5116298;28;20031;-87
2023/04/26 05:04:44;;;;;;;3.72;1.85;;;;;;;;;;5133912;28;20512;-89
2023/04/26 05:07:09;;;;;;;12.20;3.47;;;;;;;;;;5117140;28;20023;-85
2023/04/26 05:09:35;;;;;;;9.90;3.08;;;;;;;;;;5133781;28;20035;-87
2023/04/26 05:12:01;;;;;;;10.93;3.83;;;;;;;;;;5133531;28;20031;-87
2023/04/26 05:14:28;;;;;;;12.50;2.42;;;;;;;;;;5133364;28;20019;-87
2023/04/26 05:17:00;;;;;;;8.43;2.30;;;;;;;;;;5150435;28;20027;-89
2023/04/26 05:19:25;;;;;;;7.38;2.30;;;;;;;;;;5117633;28;20035;-88
2023/04/26 05:21:51;;;;;;;11.48;2.60;;;;;;;;;;5126451;28;20180;-85
2023/04/26 05:24:17;;;;;;;7.28;2.85;;;;;;;;;;5133915;28;20027;-86
2023/04/26 05:26:42;;;;;;;7.25;2.80;;;;;;;;;;5134409;28;20134;-86
2023/04/26 05:29:08;;;;;;;4.40;2.10;;;;;;;;;;5135030;28;20065;-85
2023/04/26 05:31:33;;;;;;;6.70;2.60;;;;;;;;;;5116609;28;20114;-86
2023/04/26 05:33:59;;;;;;;4.68;2.20;;;;;;;;;;5133059;28;20465;-87
2023/04/26 05:36:25;;;;;;;3.22;2.25;;;;;;;;;;5115497;28;20054;-88
2023/04/26 05:38:50;;;;;;;4.75;1.92;;;;;;;;;;5132866;28;20041;-86
2023/04/26 05:41:16;;;;;;;4.95;2.25;;;;;;;;;;5109657;28;20509;-88
2023/04/26 05:43:41;;;;;;;4.00;1.95;;;;;;;;;;5099426;28;20028;-90
2023/04/26 05:46:07;;;;;;;3.97;1.90;;;;;;;;;;5135644;27;20050;-89
2023/04/26 05:48:32;;;;;;;5.38;2.17;;;;;;;;;;5117251;28;20053;-81
2023/04/26 05:51:01;;;;;;;4.47;1.92;;;;;;;;;;5124974;27;20500;-83
2023/04/26 05:53:26;;;;;;;4.70;2.08;;;;;;;;;;5122080;27;20031;-85
2023/04/26 05:55:51;;;;;;;11.00;1.80;;;;;;;;;;5137038;27;20027;-85
2023/04/26 05:58:17;;;;;;;6.50;1.80;;;;;;;;;;5138255;27;20075;-85
2023/04/26 06:00:42;;;;;;;3.03;1.55;;;;;;;;;;5137671;27;20027;-85
2023/04/26 06:03:08;;;;;;;4.15;1.73;;;;;;;;;;5138587;27;20023;-82
2023/04/26 06:05:36;;;;;;;2.35;1.60;;;;;;;;;;5137753;27;20032;-83
2023/04/26 06:08:02;;;;;;;2.58;1.58;;;;;;;;;;5136655;27;20031;-85
2023/04/26 06:10:28;;;;;;;1.60;1.50;;;;;;;;;;5119657;27;20023;-84
2023/04/26 06:12:54;;;;;;;4.72;1.80;;;;;;;;;;5119966;27;20034;-83
2023/04/26 06:15:19;;;;;;;2.60;1.98;;;;;;;;;;5136971;27;20391;-82
2023/04/26 06:17:45;;;;;;;2.88;1.70;;;;;;;;;;5099637;28;20059;-82
2023/04/26 06:20:11;;;;;;;3.35;1.75;;;;;;;;;;5117268;28;20498;-82
2023/04/26 06:22:37;;;;;;;2.85;1.70;;;;;;;;;;5138897;27;20042;-83
2023/04/26 06:25:03;;;;;;;3.22;1.80;;;;;;;;;;5121671;27;20076;-83
2023/04/26 06:27:29;;;;;;;3.05;1.77;;;;;;;;;;5138231;27;20053;-85
2023/04/26 06:29:55;;;;;;;5.57;2.38;;;;;;;;;;5138930;27;20023;-82
2023/04/26 06:32:20;;;;;;;6.35;1.90;;;;;;;;;;5142551;27;20104;-87
2023/04/26 06:34:46;;;;;;;4.72;2.25;;;;;;;;;;5127494;27;20075;-83
2023/04/26 06:37:11;;;;;;;4.97;1.60;;;;;;;;;;5143493;27;20083;-82
2023/04/26 06:39:37;;;;;;;2.30;1.75;;;;;;;;;;5153473;27;20432;-82
2023/04/26 06:42:03;;;;;;;3.10;1.73;;;;;;;;;;5146240;27;20042;-82
2023/04/26 06:44:29;;;;;;;2.22;1.50;;;;;;;;;;5142261;27;20070;-82
2023/04/26 06:46:55;;;;;;;4.40;2.00;;;;;;;;;;5145728;27;20035;-84
2023/04/26 06:49:21;;;;;;;2.47;1.60;;;;;;;;;;5146251;27;20034;-84
2023/04/26 06:51:46;;;;;;;4.78;1.83;;;;;;;;;;5121671;28;20035;-86
2023/04/26 06:54:12;;;;;;;5.95;1.98;;;;;;;;;;5120542;28;20028;-85
2023/04/26 06:56:37;;;;;;;3.08;1.70;;;;;;;;;;5121348;27;20382;-83
2023/04/26 06:59:05;;;;;;;4.20;1.77;;;;;;;;;;5117061;28;20073;-85
2023/04/26 07:01:32;;;;;;;6.57;1.92;;;;;;;;;;5135539;27;20027;-86
2023/04/26 07:04:11;;;;;;;3.50;1.73;;;;;;;;;;5135509;27;20055;-86
2023/04/26 07:06:38;;;;;;;2.58;1.52;;;;;;;;;;5136081;27;20060;-85
2023/04/26 07:09:03;;;;;;;4.28;1.60;;;;;;;;;;5135051;27;20023;-84
2023/04/26 07:11:29;;;;;;;3.88;1.60;;;;;;;;;;5111722;28;20031;-85
2023/04/26 07:13:55;;;;;;;2.70;1.63;;;;;;;;;;5114025;27;20031;-84
2023/04/26 07:16:21;;;;;;;4.00;1.80;;;;;;;;;;5100866;27;20049;-85
2023/04/26 07:18:50;;;;;;;4.05;1.60;;;;;;;;;;5137021;27;20481;-87
2023/04/26 07:21:15;;;;;;;4.03;1.50;;;;;;;;;;5136191;27;20033;-85
2023/04/26 07:23:40;;;;;;;2.83;1.60;;;;;;;;;;5136123;27;20031;-85
2023/04/26 07:26:06;;;;;;;2.53;1.63;;;;;;;;;;5117787;27;20027;-85
2023/04/26 07:28:32;;;;;;;3.75;1.67;;;;;;;;;;5100604;27;20038;-85
2023/04/26 07:30:58;;;;;;;2.63;1.70;;;;;;;;;;5117562;27;20023;-84
2023/04/26 07:33:23;;;;;;;4.70;1.75;;;;;;;;;;5117755;27;20080;-86
2023/04/26 07:35:57;;;;;;;3.88;1.80;;;;;;;;;;5100200;27;20024;-86
2023/04/26 07:38:22;;;;;;;2.38;1.60;;;;;;;;;;5117881;27;20019;-85
2023/04/26 07:40:48;;;;;;;7.72;1.60;;;;;;;;;;5117425;27;20042;-85
2023/04/26 07:43:14;;;;;;;3.28;1.35;;;;;;;;;;5083357;27;20028;-85
2023/04/26 07:45:40;;;;;;;3.85;1.48;;;;;;;;;;5135519;27;20039;-85
2023/04/26 07:48:05;;;;;;;2.45;1.60;;;;;;;;;;5117355;27;20027;-84
2023/04/26 07:50:31;;;;;;;5.13;1.90;;;;;;;;;;5117039;27;20165;-85
2023/04/26 07:52:56;;;;;;;2.40;1.55;;;;;;;;;;5100623;27;20031;-84
2023/04/26 07:55:22;;;;;;;5.32;1.50;;;;;;;;;;5118168;27;20035;-83
2023/04/26 07:57:47;;;;;;;3.90;1.67;;;;;;;;;;5141608;27;20027;-84
2023/04/26 08:00:14;;;;;;;4.72;1.42;;;;;;;;;;5157881;27;20023;-85
2023/04/26 08:02:40;;;;;;;4.85;1.67;;;;;;;;;;5141476;27;20034;-84
2023/04/26 08:05:06;;;;;;;2.65;1.40;;;;;;;;;;5104312;27;20039;-84
2023/04/26 08:07:31;;;;;;;2.85;1.30;;;;;;;;;;5118107;27;20077;-84
2023/04/26 08:09:57;;;;;;;1.83;1.23;;;;;;;;;;5100297;27;20038;-84
2023/04/26 08:12:22;;;;;;;2.00;1.40;;;;;;;;;;5100385;27;20034;-84
2023/04/26 08:14:48;;;;;;;2.72;1.23;;;;;;;;;;5135324;27;20477;-84
2023/04/26 08:17:13;;;;;;;2.20;1.17;;;;;;;;;;5135348;27;20027;-84
2023/04/26 08:19:40;;;;;;;3.55;1.35;;;;;;;;;;5135295;27;20488;-85
2023/04/26 08:22:06;;;;;;;2.08;1.25;;;;;;;;;;5135019;27;20045;-84
2023/04/26 08:24:31;;;;;;;1.88;1.10;;;;;;;;;;5117242;27;20019;-83
2023/04/26 08:26:58;;;;;;;3.35;1.45;;;;;;;;;;5100931;27;20115;-82
2023/04/26 08:29:25;;;;;;;1.83;1.10;;;;;;;;;;5116515;27;20076;-82
2023/04/26 08:31:51;;;;;;;3.28;1.20;;;;;;;;;;5116819;27;20497;-83
2023/04/26 08:34:16;;;;;;;1.17;1.10;;;;;;;;;;5116576;27;20042;-82
2023/04/26 08:36:42;;;;;;;1.20;1.10;;;;;;;;;;5118882;27;20027;-82
2023/04/26 08:39:08;;;;;;;2.13;1.15;;;;;;;;;;5099439;27;20033;-83
2023/04/26 08:41:44;;;;;;;4.03;0.98;;;;;;;;;;5134508;27;20492;-86
2023/04/26 08:44:10;;;;;;;2.53;1.17;;;;;;;;;;5116011;27;20166;-83
2023/04/26 08:46:41;;;;;;;3.88;1.42;;;;;;;;;;5116798;28;20058;-83
2023/04/26 08:49:39;;;;;;;1.10;1.00;;;;;;;;;;5116177;27;20026;-84
2023/04/26 08:52:08;;;;;;;3.72;1.58;;;;;;;;;;5098043;28;20096;-83
2023/04/26 08:54:33;;;;;;;1.20;0.90;;;;;;;;;;5116121;27;20027;-85
2023/04/26 08:57:00;;;;;;;1.42;1.13;;;;;;;;;;5116194;28;20437;-85
2023/04/26 08:59:26;;;;;;;1.95;1.10;;;;;;;;;;5099063;28;20023;-83
2023/04/26 09:01:52;;;;;;;2.78;1.10;;;;;;;;;;5116074;28;20517;-86
2023/04/26 09:04:17;;;;;;;0.90;0.90;;;;;;;;;;5134424;28;20023;-85
2023/04/26 09:06:43;;;;;;;1.85;1.10;;;;;;;;;;5116096;28;20042;-85
2023/04/26 09:09:10;;;;;;;1.02;0.93;;;;;;;;;;5116229;28;20110;-85
2023/04/26 09:11:55;;;;;;;2.28;1.20;;;;;;;;;;5134817;28;20039;-85
2023/04/26 09:14:21;;;;;;;4.22;1.00;;;;;;;;;;5116004;28;20089;-84
2023/04/26 09:16:46;;;;;;;2.28;1.15;;;;;;;;;;5137622;27;20482;-84
2023/04/26 09:19:12;;;;;;;2.35;1.00;;;;;;;;;;5120309;27;20027;-85
2023/04/26 09:21:45;;;;;;;1.23;1.13;;;;;;;;;;5103330;27;20027;-85
2023/04/26 09:24:11;;;;;;;1.45;0.75;;;;;;;;;;5138417;27;20027;-84
2023/04/26 09:26:37;;;;;;;1.35;1.10;;;;;;;;;;5119986;27;20117;-84
2023/04/26 09:29:16;;;;;;;1.02;1.02;;;;;;;;;;5102995;27;20068;-84
2023/04/26 09:31:44;;;;;;;2.22;1.10;;;;;;;;;;5103536;27;20081;-84
2023/04/26 09:34:10;;;;;;;1.75;1.00;;;;;;;;;;5120340;27;20469;-84
2023/04/26 09:37:05;;;;;;;1.67;1.35;;;;;;;;;;5102787;27;20445;-84
2023/04/26 09:39:36;;;;;;;1.05;0.90;;;;;;;;;;5098310;27;20067;-84
2023/04/26 09:42:03;;;;;;;2.78;0.80;;;;;;;;;;5119884;27;20540;-85
2023/04/26 09:44:30;;;;;;;1.40;1.02;;;;;;;;;;5102548;27;20051;-84
2023/04/26 09:47:02;;;;;;;1.05;0.95;;;;;;;;;;5119968;27;20544;-85
2023/04/26 09:49:30;;;;;;;1.02;0.90;;;;;;;;;;5138151;27;20023;-85
2023/04/26 09:52:03;;;;;;;2.10;1.02;;;;;;;;;;5102955;27;20027;-86
2023/04/26 09:54:45;;;;;;;1.52;0.90;;;;;;;;;;5138214;27;20035;-84
2023/04/26 09:57:15;;;;;;;1.17;0.93;;;;;;;;;;5119431;27;20100;-84
2023/04/26 09:59:51;;;;;;;1.27;0.80;;;;;;;;;;5119989;27;20047;-84
2023/04/26 10:02:22;;;;;;;1.77;0.75;;;;;;;;;;5102190;27;20034;-84
2023/04/26 10:04:50;;;;;;;1.35;0.73;;;;;;;;;;5119840;27;20019;-84
2023/04/26 10:07:17;;;;;;;2.83;1.00;;;;;;;;;;5102205;27;20019;-84
2023/04/26 10:09:43;;;;;;;1.35;0.80;;;;;;;;;;5137853;27;20023;-84
2023/04/26 10:12:10;;;;;;;3.85;1.20;;;;;;;;;;5137892;27;20034;-87
2023/04/26 10:14:35;;;;;;;3.50;1.20;;;;;;;;;;5119422;27;20019;-87
2023/04/26 10:17:02;;;;;;;3.22;1.17;;;;;;;;;;5119678;27;20435;-87
2023/04/26 10:19:28;;;;;;;3.15;1.10;;;;;;;;;;5103571;27;20030;-86
2023/04/26 10:21:56;;;;;;;3.90;1.00;;;;;;;;;;5119441;27;20027;-90
2023/04/26 10:24:23;;;;;;;1.77;0.82;;;;;;;;;;5103296;27;20437;-86
2023/04/26 10:26:56;;;;;;;4.57;0.98;;;;;;;;;;5101831;28;20023;-87
2023/04/26 10:29:26;;;;;;;4.30;1.20;;;;;;;;;;5124014;27;20031;-83
2023/04/26 10:32:01;;;;;;;1.90;0.90;;;;;;;;;;5119641;27;20031;-86
2023/04/26 10:34:27;;;;;;;4.03;1.50;;;;;;;;;;5136376;27;20069;-85
2023/04/26 10:37:25;;;;;;;1.63;0.90;;;;;;;;;;5101757;27;20031;-87
2023/04/26 10:40:23;;;;;;;3.10;1.00;;;;;;;;;;5064490;27;20467;-86
2023/04/26 10:42:48;;;;;;;3.75;1.05;;;;;;;;;;5118480;27;20084;-87
2023/04/26 10:45:26;;;;;;;3.13;0.90;;;;;;;;;;5118015;27;20052;-86
2023/04/26 10:48:18;;;;;;;1.52;1.00;;;;;;;;;;5101305;27;20021;-86
2023/04/26 10:51:06;;;;;;;2.38;1.05;;;;;;;;;;5117937;27;20638;-84
2023/04/26 10:53:52;;;;;;;2.30;1.13;;;;;;;;;;5136295;27;20377;-83
2023/04/26 10:56:26;;;;;;;2.65;1.10;;;;;;;;;;5117773;27;20042;-85
2023/04/26 10:59:12;;;;;;;1.85;1.00;;;;;;;;;;5139994;27;20068;-84
2023/04/26 11:01:39;;;;;;;7.65;1.48;;;;;;;;;;5119890;27;20030;-84
2023/04/26 11:04:09;;;;;;;1.08;0.93;;;;;;;;;;5136051;27;20034;-86
2023/04/26 11:06:51;;;;;;;2.83;0.80;;;;;;;;;;5100596;27;20031;-84
2023/04/26 11:09:33;;;;;;;3.75;1.10;;;;;;;;;;5117579;27;20035;-84
2023/04/26 11:11:59;;;;;;;1.60;1.08;;;;;;;;;;5102805;27;20051;-82
2023/04/26 11:14:25;;;;;;;4.50;1.05;;;;;;;;;;5117953;27;20061;-84
2023/04/26 11:16:50;;;;;;;1.10;1.00;;;;;;;;;;5117605;27;20054;-87
2023/04/26 11:19:16;;;;;;;4.90;1.10;;;;;;;;;;5083821;27;20034;-86
2023/04/26 11:21:41;;;;;;;2.63;1.00;;;;;;;;;;5117442;27;20144;-85
2023/04/26 11:24:07;;;;;;;4.45;1.20;;;;;;;;;;5100222;27;20033;-87
2023/04/26 11:26:35;;;;;;;3.00;0.95;;;;;;;;;;5117192;27;20096;-86
2023/04/26 11:29:02;;;;;;;4.13;1.10;;;;;;;;;;5135492;27;20418;-82
2023/04/26 11:31:29;;;;;;;1.67;1.10;;;;;;;;;;5117314;27;20088;-85
2023/04/26 11:34:02;;;;;;;2.33;0.90;;;;;;;;;;5136213;27;20031;-89
2023/04/26 11:36:28;;;;;;;7.15;1.40;;;;;;;;;;5100404;27;20034;-85
2023/04/26 11:38:54;;;;;;;3.03;1.23;;;;;;;;;;5117362;27;20106;-85
2023/04/26 11:41:21;;;;;;;2.15;0.90;;;;;;;;;;5100307;27;20050;-85
2023/04/26 11:43:47;;;;;;;2.15;1.00;;;;;;;;;;5135611;27;20399;-85
2023/04/26 11:46:12;;;;;;;9.25;1.15;;;;;;;;;;5079832;28;20051;-86
2023/04/26 11:48:39;;;;;;;1.40;0.80;;;;;;;;;;5114988;28;20157;-86
2023/04/26 11:51:06;;;;;;;1.35;1.05;;;;;;;;;;5079468;28;20022;-85
2023/04/26 11:53:39;;;;;;;3.10;1.00;;;;;;;;;;5096857;28;20023;-86
2023/04/26 11:56:15;;;;;;;1.63;0.98;;;;;;;;;;5096496;28;20038;-86
2023/04/26 11:58:43;;;;;;;5.80;1.10;;;;;;;;;;5079872;28;20023;-86
2023/04/26 12:01:09;;;;;;;1.02;0.90;;;;;;;;;;5096781;28;20036;-85
2023/04/26 12:03:36;;;;;;;1.30;1.00;;;;;;;;;;5096365;28;20027;-85
2023/04/26 12:06:02;;;;;;;3.50;0.82;;;;;;;;;;5097108;28;20073;-85
2023/04/26 12:08:28;;;;;;;2.47;0.90;;;;;;;;;;5096285;28;20028;-85
2023/04/26 12:10:55;;;;;;;3.60;1.05;;;;;;;;;;5096310;28;20034;-84
2023/04/26 12:13:20;;;;;;;2.22;1.05;;;;;;;;;;5079212;28;20031;-85
2023/04/26 12:15:50;;;;;;;0.93;0.80;;;;;;;;;;5096336;28;20031;-86
2023/04/26 12:18:15;;;;;;;0.80;0.80;;;;;;;;;;5096828;28;20043;-85
2023/04/26 12:20:42;;;;;;;1.23;0.85;;;;;;;;;;5096576;28;20470;-85
2023/04/26 12:23:15;;;;;;;2.33;0.90;;;;;;;;;;5096294;28;20031;-85
2023/04/26 12:25:51;;;;;;;1.42;0.90;;;;;;;;;;5096503;28;20110;-85
2023/04/26 12:28:16;;;;;;;4.88;1.17;;;;;;;;;;5096335;28;20038;-82
2023/04/26 12:30:42;;;;;;;1.02;0.70;;;;;;;;;;5097018;28;20027;-81
2023/04/26 12:33:07;;;;;;;1.50;0.90;;;;;;;;;;5097369;28;20030;-83
2023/04/26 12:35:33;;;;;;;2.95;1.10;;;;;;;;;;5114272;28;20030;-83
2023/04/26 12:38:00;;;;;;;3.05;1.05;;;;;;;;;;5096113;28;20093;-82
2023/04/26 12:40:26;;;;;;;1.02;1.00;;;;;;;;;;5079253;28;20397;-81
2023/04/26 12:42:54;;;;;;;1.20;0.95;;;;;;;;;;5097457;28;20038;-83
2023/04/26 12:45:20;;;;;;;1.98;1.13;;;;;;;;;;5109783;27;20070;-83
2023/04/26 12:47:45;;;;;;;2.70;0.98;;;;;;;;;;5119141;27;20488;-82
2023/04/26 12:50:11;;;;;;;4.50;1.10;;;;;;;;;;5136113;27;20477;-82
2023/04/26 12:52:38;;;;;;;7.25;1.23;;;;;;;;;;5119471;27;20477;-82
2023/04/26 12:55:05;;;;;;;1.35;1.00;;;;;;;;;;5136986;27;20024;-81
2023/04/26 12:57:30;;;;;;;3.33;1.08;;;;;;;;;;5137128;27;20064;-82
2023/04/26 12:59:56;;;;;;;2.67;1.17;;;;;;;;;;5136561;27;20023;-82
2023/04/26 13:02:21;;;;;;;2.03;1.02;;;;;;;;;;5155105;27;20026;-82
2023/04/26 13:04:47;;;;;;;2.85;0.98;;;;;;;;;;5155191;27;20038;-83
2023/04/26 13:07:12;;;;;;;3.60;0.88;;;;;;;;;;5119966;27;20064;-82
2023/04/26 13:09:38;;;;;;;1.50;1.10;;;;;;;;;;5136646;27;20034;-82
2023/04/26 13:12:03;;;;;;;1.83;1.10;;;;;;;;;;5155132;27;20034;-82
2023/04/26 13:14:29;;;;;;;3.15;1.10;;;;;;;;;;5136752;27;20023;-82
2023/04/26 13:16:54;;;;;;;1.23;1.00;;;;;;;;;;5137188;27;20058;-82
2023/04/26 13:19:20;;;;;;;1.45;0.98;;;;;;;;;;5119443;27;20427;-84
2023/04/26 13:21:46;;;;;;;1.02;0.80;;;;;;;;;;5155087;27;20052;-81
2023/04/26 13:24:11;;;;;;;2.65;1.00;;;;;;;;;;5154720;27;20035;-81
2023/04/26 13:26:36;;;;;;;4.70;1.13;;;;;;;;;;5136670;27;20076;-83
2023/04/26 13:29:03;;;;;;;2.17;1.42;;;;;;;;;;5136787;27;20338;-83
2023/04/26 13:31:29;;;;;;;1.67;1.02;;;;;;;;;;5140263;27;20022;-84
2023/04/26 13:33:54;;;;;;;6.07;1.10;;;;;;;;;;5161078;27;20498;-84
2023/04/26 13:36:19;;;;;;;1.80;1.02;;;;;;;;;;5142786;27;20080;-84
2023/04/26 13:38:45;;;;;;;4.40;1.00;;;;;;;;;;5143203;27;20029;-84
2023/04/26 13:41:10;;;;;;;1.52;0.90;;;;;;;;;;5127655;27;20102;-83
2023/04/26 13:43:36;;;;;;;1.33;0.85;;;;;;;;;;5132934;27;20331;-82
2023/04/26 13:46:01;;;;;;;4.05;1.17;;;;;;;;;;5135086;27;20118;-81
2023/04/26 13:48:27;;;;;;;1.55;1.10;;;;;;;;;;5152909;27;20031;-81
2023/04/26 13:50:55;;;;;;;3.28;0.90;;;;;;;;;;5174166;27;20036;-82
2023/04/26 13:53:20;;;;;;;1.92;1.10;;;;;;;;;;5136178;27;20019;-84
2023/04/26 13:55:46;;;;;;;1.63;1.00;;;;;;;;;;5125614;27;20031;-83
2023/04/26 13:58:12;;;;;;;1.15;0.98;;;;;;;;;;5109650;27;20018;-83
2023/04/26 14:00:37;;;;;;;1.40;1.00;;;;;;;;;;5120438;27;20022;-83
2023/04/26 14:03:03;;;;;;;3.17;1.10;;;;;;;;;;5157357;27;20067;-83
2023/04/26 14:05:28;;;;;;;2.58;1.10;;;;;;;;;;5159456;27;20106;-83
2023/04/26 14:07:54;;;;;;;3.67;1.30;;;;;;;;;;5140417;27;20034;-83
2023/04/26 14:10:19;;;;;;;2.17;1.10;;;;;;;;;;5140273;27;20114;-82
2023/04/26 14:12:45;;;;;;;2.08;0.95;;;;;;;;;;5122693;27;20050;-83
2023/04/26 14:15:11;;;;;;;1.77;0.98;;;;;;;;;;5105725;27;20038;-83
2023/04/26 14:17:36;;;;;;;1.75;0.82;;;;;;;;;;5139684;27;20136;-83
2023/04/26 14:20:02;;;;;;;2.33;0.80;;;;;;;;;;5139592;27;20037;-83
2023/04/26 14:22:28;;;;;;;1.13;0.90;;;;;;;;;;5139689;27;20057;-84
2023/04/26 14:24:53;;;;;;;4.00;1.45;;;;;;;;;;5157854;27;20469;-84
2023/04/26 14:27:19;;;;;;;0.80;0.70;;;;;;;;;;5122397;27;20052;-85
2023/04/26 14:29:45;;;;;;;4.63;1.25;;;;;;;;;;5122380;27;20027;-85
2023/04/26 14:32:10;;;;;;;1.63;0.90;;;;;;;;;;5158457;27;20457;-84
2023/04/26 14:34:38;;;;;;;1.65;1.00;;;;;;;;;;5124552;27;20034;-82
2023/04/26 14:37:05;;;;;;;3.22;0.90;;;;;;;;;;5158523;27;20030;-84
2023/04/26 14:39:31;;;;;;;2.45;1.10;;;;;;;;;;5139320;27;20026;-84
2023/04/26 14:41:56;;;;;;;3.67;1.00;;;;;;;;;;5122351;27;20046;-84